Time;durP1;ratioP1;P1;durP2;ratioP2;P2;SDS_P1;SDS_P2;PMS_P1;PMS_P2;Temp;Humidity;BMP_temperature;BMP_pressure;BME280_temperature;BME280_humidity;BME280_pressure;Samples;Min_cycle;Max_cycle;Signal;HPM_P1;HPM_P2
2024/02/23 00:00:05;;;;;;;28.70;17.13;;;;;;;4.15;76.00;94461.69;5013101;28;20052;-68
2024/02/23 00:02:31;;;;;;;28.15;15.82;;;;;;;4.08;75.19;94450.16;5029301;28;20463;-69
2024/02/23 00:04:56;;;;;;;32.17;17.05;;;;;;;3.89;75.31;94453.88;5012832;28;20090;-68
2024/02/23 00:07:21;;;;;;;26.35;15.80;;;;;;;3.77;75.74;94441.78;5030823;28;20036;-68
2024/02/23 00:09:47;;;;;;;31.48;16.40;;;;;;;3.85;75.76;94455.00;4996403;28;20034;-69
2024/02/23 00:12:13;;;;;;;27.63;15.45;;;;;;;3.53;76.97;94434.66;4991546;28;20088;-68
2024/02/23 00:14:39;;;;;;;39.97;16.35;;;;;;;3.61;77.10;94453.94;5022647;28;20029;-68
2024/02/23 00:17:04;;;;;;;29.83;16.27;;;;;;;3.68;76.87;94450.91;5030448;28;20487;-68
2024/02/23 00:19:30;;;;;;;30.02;16.58;;;;;;;3.39;76.55;94428.72;5010637;28;20114;-68
2024/02/23 00:21:56;;;;;;;29.92;16.75;;;;;;;3.37;77.39;94446.78;4993620;28;20100;-68
2024/02/23 00:24:21;;;;;;;30.92;16.35;;;;;;;3.63;76.69;94463.19;4983066;28;20428;-69
2024/02/23 00:26:48;;;;;;;31.55;16.00;;;;;;;3.62;76.54;94440.16;5010934;28;20034;-68
2024/02/23 00:29:13;;;;;;;23.98;14.55;;;;;;;3.53;76.21;94452.63;4983666;28;20025;-68
2024/02/23 00:31:42;;;;;;;32.90;17.58;;;;;;;3.60;76.71;94452.28;4985978;28;20401;-68
2024/02/23 00:34:11;;;;;;;30.00;15.93;;;;;;;3.64;76.98;94453.75;4990798;28;20057;-68
2024/02/23 00:36:40;;;;;;;30.52;16.88;;;;;;;3.34;77.20;94426.44;5021474;28;20139;-69
2024/02/23 00:39:07;;;;;;;28.77;15.43;;;;;;;3.61;77.26;94451.34;4995299;28;20117;-68
2024/02/23 00:41:32;;;;;;;26.92;14.57;;;;;;;3.58;77.20;94439.53;5010553;28;20038;-68
2024/02/23 00:43:58;;;;;;;31.08;15.23;;;;;;;3.70;77.39;94432.81;4993228;28;20033;-68
2024/02/23 00:46:23;;;;;;;26.73;16.00;;;;;;;3.53;76.69;94424.38;4993962;28;20033;-68
2024/02/23 00:48:48;;;;;;;25.63;15.48;;;;;;;3.59;76.95;94436.03;5011410;28;20458;-68
2024/02/23 00:51:14;;;;;;;26.95;14.60;;;;;;;3.65;76.86;94434.81;5002851;28;20034;-68
2024/02/23 00:53:39;;;;;;;25.33;14.25;;;;;;;3.50;76.90;94437.41;4993146;28;20037;-68
2024/02/23 00:56:05;;;;;;;26.70;14.55;;;;;;;3.51;77.61;94417.69;5023175;28;20404;-69
2024/02/23 00:58:31;;;;;;;25.50;14.82;;;;;;;3.49;77.18;94410.09;5016360;28;20029;-68
2024/02/23 01:00:56;;;;;;;25.23;14.30;;;;;;;3.32;77.83;94418.84;5033624;28;20037;-68
2024/02/23 01:03:21;;;;;;;34.85;15.90;;;;;;;3.67;77.15;94418.41;5015141;28;20030;-68
2024/02/23 01:05:47;;;;;;;26.38;14.35;;;;;;;3.60;75.63;94377.81;5003563;28;20037;-68
2024/02/23 01:08:12;;;;;;;26.83;13.35;;;;;;;3.69;75.78;94400.34;5016341;28;20030;-68
2024/02/23 01:10:38;;;;;;;25.65;15.15;;;;;;;3.71;75.94;94406.22;5015396;28;20423;-68
2024/02/23 01:13:04;;;;;;;27.75;14.65;;;;;;;3.84;76.00;94413.97;4999813;28;20030;-68
2024/02/23 01:15:30;;;;;;;34.67;16.75;;;;;;;3.50;75.99;94375.78;5012020;28;20042;-68
2024/02/23 01:17:56;;;;;;;36.75;17.85;;;;;;;3.94;75.73;94415.03;4996655;28;20511;-69
2024/02/23 01:20:21;;;;;;;28.60;14.60;;;;;;;3.84;75.87;94404.50;4980389;28;20080;-68
2024/02/23 01:22:47;;;;;;;29.83;15.02;;;;;;;3.83;76.13;94413.13;5013693;28;20029;-68
2024/02/23 01:25:12;;;;;;;23.77;13.40;;;;;;;3.84;75.66;94390.84;5010688;28;20034;-68
2024/02/23 01:27:38;;;;;;;24.13;13.65;;;;;;;3.86;74.86;94396.72;5012342;28;20488;-68
2024/02/23 01:30:04;;;;;;;24.00;13.40;;;;;;;3.96;75.38;94414.03;5033705;28;20036;-68
2024/02/23 01:32:30;;;;;;;23.63;13.55;;;;;;;3.98;75.30;94407.06;5031819;28;20057;-68
2024/02/23 01:34:55;;;;;;;25.98;14.35;;;;;;;3.46;75.36;94396.63;4985403;28;20452;-68
2024/02/23 01:37:20;;;;;;;29.55;14.75;;;;;;;3.36;76.64;94404.88;5006980;28;20041;-68
2024/02/23 01:39:46;;;;;;;25.02;14.73;;;;;;;3.37;76.09;94349.22;5014410;28;20499;-68
2024/02/23 01:42:12;;;;;;;27.50;14.93;;;;;;;3.62;76.16;94388.78;4999043;28;20076;-68
2024/02/23 01:44:37;;;;;;;28.25;15.00;;;;;;;3.30;77.34;94399.31;5015529;28;20041;-68
2024/02/23 01:47:03;;;;;;;24.75;13.38;;;;;;;3.39;77.16;94391.03;4999045;28;20018;-68
2024/02/23 01:49:31;;;;;;;25.83;14.13;;;;;;;3.25;77.08;94397.00;5031635;28;20547;-68
2024/02/23 01:52:00;;;;;;;24.05;13.73;;;;;;;3.54;77.18;94390.09;4999365;28;20021;-68
2024/02/23 01:54:26;;;;;;;21.42;12.73;;;;;;;3.29;76.98;94338.63;4998577;28;20061;-68
2024/02/23 01:56:51;;;;;;;22.88;13.30;;;;;;;3.54;76.93;94377.25;4980607;28;20036;-68
2024/02/23 01:59:17;;;;;;;28.88;14.90;;;;;;;3.54;76.54;94369.56;4994826;28;20538;-69
2024/02/23 02:01:45;;;;;;;23.83;13.93;;;;;;;3.23;77.95;94370.63;4995523;28;20026;-68
2024/02/23 02:04:11;;;;;;;27.58;14.40;;;;;;;3.64;77.01;94371.53;4981552;28;20039;-68
2024/02/23 02:06:36;;;;;;;24.33;14.05;;;;;;;3.41;77.75;94368.66;5030664;28;20041;-68
2024/02/23 02:09:02;;;;;;;27.27;14.63;;;;;;;3.52;77.57;94357.72;5014373;28;20034;-68
2024/02/23 02:11:27;;;;;;;24.20;13.77;;;;;;;3.41;77.50;94340.41;4998659;28;20036;-68
2024/02/23 02:13:52;;;;;;;27.83;14.70;;;;;;;3.46;76.88;94343.53;5014952;28;20029;-68
2024/02/23 02:16:18;;;;;;;25.90;13.82;;;;;;;3.59;76.83;94369.25;5031179;28;20030;-68
2024/02/23 02:18:45;;;;;;;27.20;16.48;;;;;;;3.48;77.05;94344.25;4998401;28;20052;-68
2024/02/23 02:21:11;;;;;;;24.92;14.00;;;;;;;3.19;77.39;94355.50;5015327;28;20044;-68
2024/02/23 02:23:37;;;;;;;25.75;14.88;;;;;;;3.37;77.26;94344.06;5014795;28;20025;-68
2024/02/23 02:26:02;;;;;;;24.52;13.25;;;;;;;3.39;77.65;94362.78;5031378;28;20025;-68
2024/02/23 02:28:28;;;;;;;23.33;13.13;;;;;;;3.51;76.97;94367.19;5014728;28;20025;-68
2024/02/23 02:30:53;;;;;;;22.38;12.80;;;;;;;3.48;76.03;94377.66;5014864;28;20407;-68
2024/02/23 02:33:19;;;;;;;23.10;13.70;;;;;;;3.24;76.79;94379.16;5014593;28;20035;-68
2024/02/23 02:35:44;;;;;;;42.03;18.15;;;;;;;3.17;77.47;94353.00;4977668;28;20062;-68
2024/02/23 02:38:13;;;;;;;38.72;17.08;;;;;;;3.44;76.85;94375.34;5011905;28;20030;-68
2024/02/23 02:40:38;;;;;;;30.83;14.48;;;;;;;3.34;76.93;94381.06;4981837;28;20041;-68
2024/02/23 02:43:04;;;;;;;25.92;14.13;;;;;;;3.50;76.04;94370.66;4996865;28;20065;-68
2024/02/23 02:45:29;;;;;;;23.42;13.85;;;;;;;3.44;75.28;94365.91;5014057;28;20037;-68
2024/02/23 02:47:56;;;;;;;25.30;13.32;;;;;;;3.36;75.75;94376.63;4998222;28;20028;-68
2024/02/23 02:50:21;;;;;;;24.70;13.35;;;;;;;3.14;76.48;94353.19;5014328;28;20034;-68
2024/02/23 02:52:47;;;;;;;23.95;13.48;;;;;;;3.25;76.84;94357.69;4993512;28;20030;-69
2024/02/23 02:55:12;;;;;;;27.35;14.25;;;;;;;3.00;77.73;94371.19;5007490;28;20474;-68
2024/02/23 02:57:38;;;;;;;23.58;13.45;;;;;;;3.13;77.70;94367.78;4997801;28;20474;-68
2024/02/23 03:00:08;;;;;;;26.40;13.68;;;;;;;3.32;76.52;94369.22;4997661;28;20083;-69
2024/02/23 03:02:34;;;;;;;25.63;13.63;;;;;;;3.32;76.58;94382.06;5013419;28;20033;-68
2024/02/23 03:05:00;;;;;;;28.00;13.98;;;;;;;3.28;76.96;94378.03;5014113;28;20030;-68
2024/02/23 03:07:25;;;;;;;28.48;14.82;;;;;;;3.27;77.19;94378.94;4981481;28;20416;-68
2024/02/23 03:09:51;;;;;;;26.92;14.68;;;;;;;2.75;76.70;94320.50;4997265;28;20037;-68
2024/02/23 03:12:17;;;;;;;27.15;14.05;;;;;;;3.17;76.49;94385.56;5012797;28;20114;-68
2024/02/23 03:14:42;;;;;;;26.50;13.70;;;;;;;3.17;76.98;94375.28;4997509;28;20585;-68
2024/02/23 03:17:09;;;;;;;29.65;14.45;;;;;;;2.80;77.58;94365.50;4996705;28;20030;-68
2024/02/23 03:19:34;;;;;;;23.85;12.75;;;;;;;3.12;77.45;94370.41;4979821;28;20037;-68
2024/02/23 03:22:00;;;;;;;24.50;13.63;;;;;;;2.84;78.25;94379.81;4997551;28;20026;-68
2024/02/23 03:24:25;;;;;;;26.77;13.40;;;;;;;3.06;78.01;94366.47;5013867;28;20036;-68
2024/02/23 03:26:51;;;;;;;26.02;13.95;;;;;;;3.08;77.65;94366.41;4980966;28;20029;-68
2024/02/23 03:29:16;;;;;;;24.50;13.43;;;;;;;3.13;77.54;94385.75;5012247;28;20045;-68
2024/02/23 03:31:41;;;;;;;25.35;13.63;;;;;;;3.11;77.30;94385.00;4996804;28;20026;-68
2024/02/23 03:34:07;;;;;;;24.58;13.02;;;;;;;3.06;76.74;94378.50;5013652;28;20029;-68
2024/02/23 03:36:33;;;;;;;28.55;13.65;;;;;;;2.65;77.56;94362.09;5013148;28;20052;-68
2024/02/23 03:38:59;;;;;;;23.50;13.57;;;;;;;2.62;77.83;94340.94;4976489;28;20026;-68
2024/02/23 03:41:24;;;;;;;25.77;14.65;;;;;;;2.85;78.12;94368.63;5021640;28;20079;-68
2024/02/23 03:43:50;;;;;;;27.85;14.55;;;;;;;2.87;78.27;94374.50;4996184;28;20026;-68
2024/02/23 03:46:16;;;;;;;25.55;13.35;;;;;;;2.83;77.99;94359.34;5000015;28;20542;-68
2024/02/23 03:48:41;;;;;;;23.55;12.88;;;;;;;2.95;78.07;94381.69;5013332;28;20112;-68
2024/02/23 03:51:08;;;;;;;26.63;13.70;;;;;;;3.11;78.17;94389.31;5013259;28;20034;-68
2024/02/23 03:53:34;;;;;;;26.45;14.57;;;;;;;3.19;77.94;94384.53;4970546;28;20464;-68
2024/02/23 03:55:59;;;;;;;26.67;14.13;;;;;;;3.07;77.45;94359.63;4999103;28;20045;-68
2024/02/23 03:58:26;;;;;;;34.10;17.05;;;;;;;3.13;77.46;94380.59;5030815;28;20033;-68
2024/02/23 04:00:51;;;;;;;29.38;16.02;;;;;;;3.22;77.50;94386.09;5031029;28;20034;-68
2024/02/23 04:03:17;;;;;;;24.38;13.13;;;;;;;2.91;77.33;94378.50;5013167;28;20060;-68
2024/02/23 04:05:42;;;;;;;31.65;16.30;;;;;;;3.05;78.11;94380.25;5002261;28;20033;-68
2024/02/23 04:08:07;;;;;;;24.98;14.80;;;;;;;3.00;78.02;94384.81;5025674;28;20499;-68
2024/02/23 04:10:33;;;;;;;24.13;13.15;;;;;;;2.85;78.93;94389.13;5011254;28;20044;-68
2024/02/23 04:12:58;;;;;;;23.50;12.98;;;;;;;3.01;78.41;94381.38;5023162;28;20052;-68
2024/02/23 04:15:24;;;;;;;21.00;12.50;;;;;;;2.90;78.11;94382.00;5010312;28;20465;-68
2024/02/23 04:17:49;;;;;;;23.35;12.52;;;;;;;2.89;78.30;94372.63;4988909;28;20025;-68
2024/02/23 04:20:14;;;;;;;22.58;12.32;;;;;;;2.66;79.63;94384.25;4996517;28;20037;-68
2024/02/23 04:22:40;;;;;;;21.52;13.00;;;;;;;2.67;79.65;94379.94;5012400;28;20072;-68
2024/02/23 04:25:06;;;;;;;31.65;17.80;;;;;;;2.64;79.60;94370.69;5012911;28;20423;-68
2024/02/23 04:27:31;;;;;;;28.85;15.85;;;;;;;2.61;79.96;94370.88;4992734;28;20053;-68
2024/02/23 04:29:57;;;;;;;27.92;15.15;;;;;;;2.56;80.13;94379.75;4993379;28;20046;-68
2024/02/23 04:32:23;;;;;;;147.93;82.28;;;;;;;2.76;79.75;94378.59;4980409;28;20562;-69
2024/02/23 04:34:48;;;;;;;28.85;17.55;;;;;;;2.72;79.84;94380.50;4992347;28;20033;-68
2024/02/23 04:37:14;;;;;;;27.63;15.63;;;;;;;2.71;80.08;94403.72;5000624;28;20054;-68
2024/02/23 04:39:41;;;;;;;26.13;13.68;;;;;;;2.78;80.04;94387.03;5016701;28;20120;-68
2024/02/23 04:42:08;;;;;;;21.42;12.45;;;;;;;3.08;78.11;94399.78;5017130;28;20469;-68
2024/02/23 04:44:34;;;;;;;25.98;12.15;;;;;;;3.04;78.32;94399.13;5000166;28;20484;-68
2024/02/23 04:46:59;;;;;;;24.63;12.32;;;;;;;2.81;78.37;94399.66;5016680;28;20033;-69
2024/02/23 04:49:25;;;;;;;24.33;12.95;;;;;;;2.67;79.06;94383.38;5016349;28;20042;-68
2024/02/23 04:51:50;;;;;;;21.80;13.45;;;;;;;2.68;79.58;94386.75;5016121;28;20029;-68
2024/02/23 04:54:15;;;;;;;22.67;12.13;;;;;;;2.82;78.89;94378.25;5023777;28;20033;-68
2024/02/23 04:56:41;;;;;;;25.60;13.95;;;;;;;2.74;78.86;94395.81;5020960;28;20096;-68
2024/02/23 04:59:06;;;;;;;22.92;12.48;;;;;;;2.71;78.54;94381.44;5004905;28;20504;-68
2024/02/23 05:01:37;;;;;;;22.20;11.73;;;;;;;2.43;79.22;94384.78;5031369;28;20033;-68
2024/02/23 05:04:03;;;;;;;25.20;13.45;;;;;;;2.29;77.71;94390.72;4993338;28;20519;-68
2024/02/23 05:06:29;;;;;;;22.85;12.40;;;;;;;2.44;78.49;94391.56;5028682;28;20038;-68
2024/02/23 05:08:54;;;;;;;19.60;11.60;;;;;;;2.48;78.51;94408.44;5027505;28;20103;-68
2024/02/23 05:11:20;;;;;;;22.50;12.52;;;;;;;2.57;78.57;94414.78;4992707;28;20030;-68
2024/02/23 05:13:45;;;;;;;24.70;12.45;;;;;;;2.39;78.23;94403.81;4993762;28;20026;-68
2024/02/23 05:16:12;;;;;;;22.25;12.65;;;;;;;2.18;79.31;94408.44;5014384;28;20029;-68
2024/02/23 05:18:38;;;;;;;23.35;12.68;;;;;;;2.12;80.84;94416.47;5014779;28;20052;-69
2024/02/23 05:21:04;;;;;;;36.95;17.70;;;;;;;2.27;80.63;94414.78;4981255;28;20115;-69
2024/02/23 05:23:29;;;;;;;24.77;13.88;;;;;;;2.14;80.88;94407.75;5014846;28;20033;-68
2024/02/23 05:25:54;;;;;;;24.40;14.18;;;;;;;2.04;81.24;94410.94;4994609;28;20434;-68
2024/02/23 05:28:20;;;;;;;22.10;11.90;;;;;;;2.40;80.25;94431.94;5024362;28;20030;-68
2024/02/23 05:30:45;;;;;;;25.20;12.40;;;;;;;2.15;79.67;94406.88;5028163;28;20029;-68
2024/02/23 05:33:11;;;;;;;21.15;12.25;;;;;;;2.20;81.02;94437.34;5033301;28;20021;-69
2024/02/23 05:35:37;;;;;;;28.38;13.80;;;;;;;2.16;81.29;94431.56;4996281;28;20061;-69
2024/02/23 05:38:02;;;;;;;24.48;13.30;;;;;;;2.09;80.65;94420.03;5009221;28;20416;-69
2024/02/23 05:40:28;;;;;;;33.78;15.20;;;;;;;1.99;81.21;94419.72;5014086;28;20123;-69
2024/02/23 05:42:54;;;;;;;51.90;29.17;;;;;;;2.18;81.11;94427.19;5009217;28;20480;-68
2024/02/23 05:45:20;;;;;;;52.53;19.73;;;;;;;2.08;80.54;94390.19;5013210;28;20060;-69
2024/02/23 05:47:45;;;;;;;68.97;21.75;;;;;;;1.98;80.42;94414.69;5025283;28;21364;-69
2024/02/23 05:50:10;;;;;;;67.32;21.55;;;;;;;2.05;80.45;94422.84;4998457;28;20026;-69
2024/02/23 05:52:36;;;;;;;50.20;19.75;;;;;;;1.98;80.98;94443.69;4995550;28;20029;-68
2024/02/23 05:55:05;;;;;;;40.58;20.27;;;;;;;2.12;81.69;94454.91;4995445;28;20061;-69
2024/02/23 05:57:30;;;;;;;52.67;24.85;;;;;;;2.15;81.79;94450.44;5030206;28;20033;-69
2024/02/23 05:59:56;;;;;;;53.15;24.25;;;;;;;2.03;82.02;94420.34;5012332;28;20036;-69
2024/02/23 06:02:22;;;;;;;36.92;17.73;;;;;;;2.23;82.34;94453.41;5004966;28;20026;-69
2024/02/23 06:04:47;;;;;;;39.30;18.38;;;;;;;2.13;82.50;94457.38;4975557;28;20124;-69
2024/02/23 06:07:13;;;;;;;23.45;12.88;;;;;;;2.29;80.99;94449.66;4999389;28;20401;-68
2024/02/23 06:09:38;;;;;;;20.02;11.57;;;;;;;2.07;80.81;94410.78;4998303;28;20029;-69
2024/02/23 06:12:05;;;;;;;20.58;11.52;;;;;;;1.86;81.81;94403.34;5003079;28;20049;-69
2024/02/23 06:14:31;;;;;;;21.35;11.50;;;;;;;2.45;80.82;94447.91;5014847;28;20036;-68
2024/02/23 06:16:56;;;;;;;18.92;10.88;;;;;;;2.27;81.37;94440.41;5030269;28;20034;-69
2024/02/23 06:19:21;;;;;;;20.63;11.85;;;;;;;2.32;81.57;94458.94;4998356;28;20037;-69
2024/02/23 06:21:50;;;;;;;26.58;12.10;;;;;;;2.33;82.25;94475.94;4996559;28;20022;-68
2024/02/23 06:24:16;;;;;;;22.00;11.70;;;;;;;2.54;81.46;94479.06;4993953;28;20061;-68
2024/02/23 06:26:41;;;;;;;34.70;17.13;;;;;;;2.67;81.24;94467.16;5014060;28;20026;-69
2024/02/23 06:29:11;;;;;;;55.13;23.95;;;;;;;2.81;80.50;94459.50;5005772;28;20030;-68
2024/02/23 06:31:36;;;;;;;23.05;12.27;;;;;;;2.84;80.29;94463.63;5009710;28;20502;-69
2024/02/23 06:34:02;;;;;;;23.02;12.20;;;;;;;2.83;79.67;94457.66;5010683;28;20026;-69
2024/02/23 06:36:27;;;;;;;23.73;12.13;;;;;;;2.75;80.17;94474.44;4973758;28;20581;-68
2024/02/23 06:38:52;;;;;;;22.85;12.00;;;;;;;2.87;80.85;94471.13;4992037;28;20072;-69
2024/02/23 06:41:18;;;;;;;24.83;12.32;;;;;;;2.98;79.99;94466.22;4978015;28;20041;-69
2024/02/23 06:43:43;;;;;;;23.23;12.27;;;;;;;2.97;79.86;94454.31;4969922;28;20035;-68
2024/02/23 06:46:09;;;;;;;22.55;11.52;;;;;;;3.32;79.34;94470.19;4976586;28;20042;-69
2024/02/23 06:48:35;;;;;;;27.15;13.15;;;;;;;4.01;78.80;94473.69;4967259;28;20027;-70
2024/02/23 06:51:00;;;;;;;22.17;11.75;;;;;;;5.74;72.77;94478.63;4982047;28;20026;-69
2024/02/23 06:53:26;;;;;;;19.73;12.00;;;;;;;7.33;67.52;94450.84;4967296;28;20034;-69
2024/02/23 06:55:51;;;;;;;20.80;11.98;;;;;;;8.71;61.80;94460.75;4983227;28;20093;-70
2024/02/23 06:58:18;;;;;;;21.50;12.68;;;;;;;9.62;58.85;94467.88;4979981;28;20034;-68
2024/02/23 07:00:43;;;;;;;23.05;13.02;;;;;;;10.29;56.63;94466.47;4988858;28;20535;-69
2024/02/23 07:03:09;;;;;;;26.20;14.55;;;;;;;11.31;53.34;94452.25;4986698;28;20030;-70
2024/02/23 07:05:35;;;;;;;25.58;13.55;;;;;;;12.22;50.59;94457.69;4964872;28;20034;-69
2024/02/23 07:08:01;;;;;;;24.13;13.35;;;;;;;12.42;50.48;94469.63;4971681;28;20062;-70
2024/02/23 07:10:27;;;;;;;41.25;24.40;;;;;;;13.80;45.64;94463.13;4988637;28;20037;-69
2024/02/23 07:12:53;;;;;;;27.65;15.05;;;;;;;14.81;44.16;94462.34;4990131;28;20030;-73
2024/02/23 07:15:19;;;;;;;35.03;16.50;;;;;;;15.57;40.65;94467.28;4970889;28;20375;-69
2024/02/23 07:17:45;;;;;;;21.95;14.35;;;;;;;16.12;40.53;94467.50;4973574;28;20560;-70
2024/02/23 07:20:11;;;;;;;18.27;11.93;;;;;;;15.99;40.10;94466.22;4989846;28;20038;-68
2024/02/23 07:22:36;;;;;;;20.58;14.40;;;;;;;15.48;39.60;94464.81;4987640;28;20030;-68
2024/02/23 07:25:03;;;;;;;26.88;15.82;;;;;;;14.63;40.39;94459.88;4990660;28;20073;-69
2024/02/23 07:27:29;;;;;;;20.27;15.32;;;;;;;13.29;43.16;94452.53;4985916;28;20041;-68
2024/02/23 07:29:55;;;;;;;24.58;17.05;;;;;;;14.15;42.32;94443.03;4983808;28;20058;-69
2024/02/23 07:32:20;;;;;;;27.08;17.15;;;;;;;15.27;40.31;94439.97;4972037;28;20042;-70
2024/02/23 07:34:46;;;;;;;22.42;16.85;;;;;;;16.57;38.54;94443.19;4988458;28;20041;-69
2024/02/23 07:37:11;;;;;;;24.75;15.82;;;;;;;16.00;37.44;94446.09;4971635;28;20445;-70
2024/02/23 07:39:37;;;;;;;24.52;16.20;;;;;;;14.63;39.52;94397.97;4985455;28;20413;-69
2024/02/23 07:42:03;;;;;;;24.58;16.92;;;;;;;15.47;38.99;94450.09;4989535;28;20517;-71
2024/02/23 07:44:28;;;;;;;28.17;18.45;;;;;;;15.36;39.83;94443.41;4987438;28;20162;-68
2024/02/23 07:46:55;;;;;;;32.55;20.58;;;;;;;16.22;39.04;94461.06;4985799;28;20066;-69
2024/02/23 07:49:22;;;;;;;30.55;20.35;;;;;;;15.47;39.42;94442.25;4978437;28;20027;-70
2024/02/23 07:51:47;;;;;;;28.38;17.85;;;;;;;14.98;40.49;94464.00;4977967;28;20057;-71
2024/02/23 07:54:13;;;;;;;29.17;19.00;;;;;;;16.95;37.78;94462.50;4988482;28;20113;-70
2024/02/23 07:56:38;;;;;;;30.25;19.70;;;;;;;16.12;37.97;94462.25;4991381;28;20030;-71
2024/02/23 07:59:04;;;;;;;27.02;18.83;;;;;;;17.26;35.75;94456.38;4969158;28;20034;-72
2024/02/23 08:01:29;;;;;;;38.20;21.63;;;;;;;15.86;38.46;94445.78;4954406;28;20034;-73
2024/02/23 08:03:55;;;;;;;30.02;20.10;;;;;;;16.38;38.50;94441.84;4979111;28;20064;-69
2024/02/23 08:06:21;;;;;;;24.08;16.23;;;;;;;15.90;38.29;94433.16;4967648;28;20153;-68
2024/02/23 08:08:46;;;;;;;22.25;15.57;;;;;;;17.60;35.98;94439.31;4973556;28;20042;-70
2024/02/23 08:11:13;;;;;;;25.20;17.02;;;;;;;17.06;36.61;94442.91;4977367;28;20027;-70
2024/02/23 08:13:39;;;;;;;26.27;17.08;;;;;;;16.63;37.42;94445.16;4969033;28;20037;-70
2024/02/23 08:16:05;;;;;;;30.80;17.83;;;;;;;15.83;38.69;94447.94;4970463;28;20038;-70
2024/02/23 08:18:31;;;;;;;26.27;16.55;;;;;;;15.50;38.90;94447.97;4988440;28;20306;-70
2024/02/23 08:20:57;;;;;;;30.40;17.58;;;;;;;16.54;37.79;94451.41;4989180;28;20034;-70
2024/02/23 08:23:23;;;;;;;26.30;16.73;;;;;;;17.02;37.09;94448.66;4981671;28;20077;-70
2024/02/23 08:25:48;;;;;;;30.08;17.45;;;;;;;15.47;39.43;94439.63;4980696;28;20092;-70
2024/02/23 08:28:14;;;;;;;23.15;15.73;;;;;;;16.21;38.57;94450.75;4988077;28;20432;-70
2024/02/23 08:30:39;;;;;;;23.17;17.35;;;;;;;15.39;40.01;94443.88;4988835;28;20133;-70
2024/02/23 08:33:05;;;;;;;24.02;15.75;;;;;;;13.40;44.13;94449.69;4990359;28;20018;-69
2024/02/23 08:35:31;;;;;;;22.50;15.90;;;;;;;13.30;45.31;94450.75;4999009;28;20107;-70
2024/02/23 08:37:56;;;;;;;23.77;15.75;;;;;;;13.13;44.79;94428.91;5029639;28;20036;-70
2024/02/23 08:40:21;;;;;;;23.25;14.23;;;;;;;12.95;45.77;94442.78;4994069;28;20083;-71
2024/02/23 08:42:47;;;;;;;20.10;14.35;;;;;;;12.55;47.00;94432.81;5011956;28;20037;-70
2024/02/23 08:45:13;;;;;;;23.90;14.23;;;;;;;12.45;47.38;94440.72;5012084;28;20033;-69
2024/02/23 08:47:39;;;;;;;23.75;14.75;;;;;;;12.28;47.52;94436.28;5007373;28;20492;-71
2024/02/23 08:50:05;;;;;;;19.23;11.88;;;;;;;12.15;48.61;94441.03;5012268;28;20044;-69
2024/02/23 08:52:31;;;;;;;17.55;10.07;;;;;;;11.57;49.38;94450.69;5029785;28;20064;-69
2024/02/23 08:54:56;;;;;;;19.55;11.80;;;;;;;11.62;50.04;94425.06;5028265;28;20037;-69
2024/02/23 08:57:23;;;;;;;15.70;9.55;;;;;;;11.42;50.11;94444.28;5018992;28;20041;-70
2024/02/23 08:59:51;;;;;;;20.23;11.10;;;;;;;11.91;50.01;94454.56;4993272;28;20104;-69
2024/02/23 09:02:17;;;;;;;15.43;9.30;;;;;;;12.24;48.86;94429.72;5010487;28;20724;-70
2024/02/23 09:04:44;;;;;;;15.52;8.85;;;;;;;11.89;48.38;94446.88;4992843;28;20045;-69
2024/02/23 09:07:10;;;;;;;18.42;10.55;;;;;;;12.35;48.52;94445.16;5002180;28;20030;-69
2024/02/23 09:09:36;;;;;;;20.33;9.30;;;;;;;12.32;48.19;94445.44;5006267;28;20110;-69
2024/02/23 09:12:02;;;;;;;13.10;9.30;;;;;;;12.52;46.99;94423.50;5002448;28;20033;-69
2024/02/23 09:14:27;;;;;;;12.32;8.60;;;;;;;12.31;46.43;94420.34;4960505;28;20492;-69
2024/02/23 09:16:53;;;;;;;17.77;9.48;;;;;;;12.26;47.10;94439.03;4998718;28;20021;-69
2024/02/23 09:19:18;;;;;;;15.18;8.10;;;;;;;12.42;47.00;94437.56;5015394;28;20036;-69
2024/02/23 09:21:44;;;;;;;7.85;4.68;;;;;;;11.80;47.97;94427.72;5009215;28;20037;-69
2024/02/23 09:24:10;;;;;;;12.30;7.45;;;;;;;12.22;47.42;94416.84;5016018;28;20140;-69
2024/02/23 09:26:35;;;;;;;13.20;7.75;;;;;;;12.05;48.85;94421.06;5015935;28;20030;-69
2024/02/23 09:29:01;;;;;;;11.57;7.70;;;;;;;12.35;46.88;94403.47;5015714;28;20022;-69
2024/02/23 09:31:28;;;;;;;14.98;7.20;;;;;;;12.44;46.69;94399.97;5015798;28;20189;-69
2024/02/23 09:33:55;;;;;;;8.20;4.80;;;;;;;12.10;47.62;94406.78;5030674;28;20037;-70
2024/02/23 09:36:20;;;;;;;13.98;8.30;;;;;;;12.34;48.17;94414.03;4977206;28;20397;-69
2024/02/23 09:38:45;;;;;;;15.15;8.00;;;;;;;12.68;47.77;94422.03;5026126;28;20033;-69
2024/02/23 09:41:16;;;;;;;10.52;6.57;;;;;;;12.83;47.48;94425.72;4995954;28;20489;-69
2024/02/23 09:43:42;;;;;;;11.48;6.63;;;;;;;13.39;44.81;94424.53;5001630;28;20029;-69
2024/02/23 09:46:07;;;;;;;13.60;6.38;;;;;;;13.35;45.58;94422.41;4979817;28;20033;-69
2024/02/23 09:48:35;;;;;;;10.23;5.90;;;;;;;13.26;45.48;94415.47;4987980;28;20632;-69
2024/02/23 09:51:00;;;;;;;8.93;5.30;;;;;;;13.64;44.27;94425.50;5015982;28;20108;-69
2024/02/23 09:53:25;;;;;;;11.18;5.65;;;;;;;13.71;43.69;94406.63;4998862;28;20040;-69
2024/02/23 09:55:51;;;;;;;7.95;5.15;;;;;;;13.39;44.44;94413.28;4999218;28;20038;-69
2024/02/23 09:58:17;;;;;;;36.95;18.55;;;;;;;13.37;44.38;94394.34;4982653;28;20048;-70
2024/02/23 10:00:42;;;;;;;11.00;5.72;;;;;;;13.79;42.92;94406.66;4999018;28;20033;-69
2024/02/23 10:03:07;;;;;;;14.93;6.90;;;;;;;13.45;43.73;94404.03;4982552;28;20029;-69
2024/02/23 10:05:33;;;;;;;12.68;5.82;;;;;;;13.22;44.57;94388.06;5015344;28;20030;-69
2024/02/23 10:07:59;;;;;;;6.78;3.88;;;;;;;13.65;42.42;94389.81;5032893;28;20017;-70
2024/02/23 10:10:32;;;;;;;21.25;15.20;;;;;;;13.14;43.57;94387.00;5032831;28;20033;-69
2024/02/23 10:12:58;;;;;;;20.17;10.90;;;;;;;13.40;44.47;94374.03;4999843;28;20043;-69
2024/02/23 10:15:24;;;;;;;32.55;25.83;;;;;;;13.61;43.61;94388.47;4998503;28;20029;-70
2024/02/23 10:17:49;;;;;;;15.38;10.88;;;;;;;13.83;43.25;94398.34;5014936;28;20129;-71
2024/02/23 10:20:15;;;;;;;10.27;6.50;;;;;;;13.67;43.27;94387.84;5032627;28;20039;-70
2024/02/23 10:22:40;;;;;;;8.27;6.07;;;;;;;13.85;42.83;94391.19;5032754;28;20715;-70
2024/02/23 10:25:06;;;;;;;19.17;13.77;;;;;;;13.76;41.94;94378.25;4998278;28;20484;-71
2024/02/23 10:27:31;;;;;;;8.30;4.90;;;;;;;14.31;41.51;94383.00;5014113;28;20025;-71
2024/02/23 10:29:57;;;;;;;7.43;4.25;;;;;;;14.49;41.54;94398.56;5014058;28;20041;-71
2024/02/23 10:32:23;;;;;;;6.07;4.03;;;;;;;14.37;41.02;94394.59;5015062;28;20143;-71
2024/02/23 10:34:50;;;;;;;6.80;4.75;;;;;;;13.93;40.67;94363.47;5014678;28;20095;-71
2024/02/23 10:37:16;;;;;;;6.63;4.18;;;;;;;14.34;40.12;94363.56;5014878;28;20263;-71
2024/02/23 10:39:41;;;;;;;3.55;2.45;;;;;;;14.19;40.64;94384.28;5014461;28;20033;-71
2024/02/23 10:42:09;;;;;;;4.30;2.67;;;;;;;14.32;39.56;94366.38;5014569;28;20029;-71
2024/02/23 10:44:34;;;;;;;3.72;2.20;;;;;;;14.46;38.04;94362.31;5014305;28;20040;-71
2024/02/23 10:47:00;;;;;;;4.00;2.47;;;;;;;14.50;39.50;94358.38;4981935;28;20033;-71
2024/02/23 10:49:26;;;;;;;3.47;2.55;;;;;;;14.51;39.78;94362.59;5014361;28;20029;-71
2024/02/23 10:51:52;;;;;;;4.55;2.80;;;;;;;14.79;38.72;94354.47;5031911;28;20025;-71
2024/02/23 10:54:19;;;;;;;4.00;2.65;;;;;;;14.68;39.88;94339.94;5014258;28;20468;-71
2024/02/23 10:56:47;;;;;;;6.55;3.45;;;;;;;14.97;37.59;94329.81;4998297;28;20028;-71
2024/02/23 10:59:12;;;;;;;4.70;3.00;;;;;;;15.03;37.92;94337.97;4998230;28;20476;-71
2024/02/23 11:01:39;;;;;;;7.45;3.17;;;;;;;15.17;38.75;94356.41;5031594;28;20037;-71
2024/02/23 11:04:04;;;;;;;7.80;3.67;;;;;;;15.35;38.10;94352.78;4998293;28;20611;-71
2024/02/23 11:06:30;;;;;;;6.22;3.60;;;;;;;15.29;37.64;94351.66;4997524;28;20527;-71
2024/02/23 11:09:05;;;;;;;6.53;3.60;;;;;;;15.26;37.53;94357.22;4997679;28;20087;-71
2024/02/23 11:11:31;;;;;;;6.47;3.75;;;;;;;15.12;37.85;94348.25;4992756;28;20067;-71
2024/02/23 11:13:57;;;;;;;7.10;4.25;;;;;;;15.34;38.41;94340.69;5001023;28;20045;-71
2024/02/23 11:16:25;;;;;;;4.63;2.70;;;;;;;15.20;37.00;94282.00;5002310;28;20025;-71